sensor_id;sensor_type;location;lat;lon;timestamp;P1;durP1;ratioP1;P2;durP2;ratioP2
18879;SDS011;9572;52.378;13.404;2024-02-21T00:01:48;27.03;;;5.20;;
18879;SDS011;9572;52.378;13.404;2024-02-21T00:04:15;16.63;;;4.87;;
18879;SDS011;9572;52.378;13.404;2024-02-21T00:06:42;19.73;;;4.83;;
18879;SDS011;9572;52.378;13.404;2024-02-21T00:09:10;22.07;;;5.13;;
18879;SDS011;9572;52.378;13.404;2024-02-21T00:11:37;19.77;;;4.53;;
18879;SDS011;9572;52.378;13.404;2024-02-21T00:14:04;14.53;;;4.70;;
18879;SDS011;9572;52.378;13.404;2024-02-21T00:16:31;17.10;;;4.77;;
18879;SDS011;9572;52.378;13.404;2024-02-21T00:18:58;18.73;;;5.57;;
18879;SDS011;9572;52.378;13.404;2024-02-21T00:21:25;18.67;;;4.80;;
18879;SDS011;9572;52.378;13.404;2024-02-21T00:23:51;15.77;;;4.53;;
18879;SDS011;9572;52.378;13.404;2024-02-21T00:26:20;12.03;;;4.40;;
18879;SDS011;9572;52.378;13.404;2024-02-21T00:28:46;14.47;;;4.23;;
18879;SDS011;9572;52.378;13.404;2024-02-21T00:31:13;17.97;;;4.53;;
18879;SDS011;9572;52.378;13.404;2024-02-21T00:33:40;17.60;;;4.97;;
18879;SDS011;9572;52.378;13.404;2024-02-21T00:36:07;13.90;;;4.47;;
18879;SDS011;9572;52.378;13.404;2024-02-21T00:38:34;21.73;;;5.23;;
18879;SDS011;9572;52.378;13.404;2024-02-21T00:41:01;21.10;;;4.87;;
18879;SDS011;9572;52.378;13.404;2024-02-21T00:43:29;19.30;;;4.60;;
18879;SDS011;9572;52.378;13.404;2024-02-21T00:45:56;18.43;;;4.27;;
18879;SDS011;9572;52.378;13.404;2024-02-21T00:48:23;20.23;;;5.60;;
18879;SDS011;9572;52.378;13.404;2024-02-21T00:50:50;18.53;;;4.80;;
18879;SDS011;9572;52.378;13.404;2024-02-21T00:53:17;18.07;;;4.50;;
18879;SDS011;9572;52.378;13.404;2024-02-21T00:58:43;15.27;;;4.47;;
18879;SDS011;9572;52.378;13.404;2024-02-21T01:01:10;15.10;;;4.67;;
18879;SDS011;9572;52.378;13.404;2024-02-21T01:06:56;22.30;;;5.03;;
18879;SDS011;9572;52.378;13.404;2024-02-21T01:09:23;13.03;;;4.73;;
18879;SDS011;9572;52.378;13.404;2024-02-21T01:11:50;18.33;;;4.50;;
18879;SDS011;9572;52.378;13.404;2024-02-21T01:14:18;22.17;;;5.03;;
18879;SDS011;9572;52.378;13.404;2024-02-21T01:16:51;18.00;;;4.73;;
18879;SDS011;9572;52.378;13.404;2024-02-21T01:19:18;21.50;;;5.23;;
18879;SDS011;9572;52.378;13.404;2024-02-21T01:21:44;17.37;;;4.30;;
18879;SDS011;9572;52.378;13.404;2024-02-21T01:24:11;15.97;;;4.87;;
18879;SDS011;9572;52.378;13.404;2024-02-21T01:26:39;23.17;;;4.80;;
18879;SDS011;9572;52.378;13.404;2024-02-21T01:32:30;22.00;;;4.97;;
18879;SDS011;9572;52.378;13.404;2024-02-21T01:34:57;13.93;;;4.80;;
18879;SDS011;9572;52.378;13.404;2024-02-21T01:37:24;16.67;;;4.67;;
18879;SDS011;9572;52.378;13.404;2024-02-21T01:39:51;22.23;;;5.00;;
18879;SDS011;9572;52.378;13.404;2024-02-21T01:42:18;16.20;;;4.37;;
18879;SDS011;9572;52.378;13.404;2024-02-21T01:44:44;12.43;;;3.83;;
18879;SDS011;9572;52.378;13.404;2024-02-21T01:47:11;17.03;;;4.50;;
18879;SDS011;9572;52.378;13.404;2024-02-21T01:49:41;15.93;;;4.37;;
18879;SDS011;9572;52.378;13.404;2024-02-21T01:52:08;20.63;;;4.80;;
18879;SDS011;9572;52.378;13.404;2024-02-21T01:54:38;16.20;;;5.10;;
18879;SDS011;9572;52.378;13.404;2024-02-21T01:57:22;16.37;;;3.63;;
18879;SDS011;9572;52.378;13.404;2024-02-21T01:59:49;19.27;;;4.20;;
18879;SDS011;9572;52.378;13.404;2024-02-21T02:02:28;10.43;;;4.00;;
18879;SDS011;9572;52.378;13.404;2024-02-21T02:08:17;14.03;;;4.20;;
18879;SDS011;9572;52.378;13.404;2024-02-21T02:10:47;20.13;;;4.20;;
18879;SDS011;9572;52.378;13.404;2024-02-21T02:13:14;17.77;;;4.47;;
18879;SDS011;9572;52.378;13.404;2024-02-21T02:15:41;16.83;;;3.87;;
18879;SDS011;9572;52.378;13.404;2024-02-21T02:18:09;19.63;;;4.07;;
18879;SDS011;9572;52.378;13.404;2024-02-21T02:20:38;13.53;;;4.20;;
18879;SDS011;9572;52.378;13.404;2024-02-21T02:23:07;17.00;;;4.73;;
18879;SDS011;9572;52.378;13.404;2024-02-21T02:25:38;15.03;;;3.70;;
18879;SDS011;9572;52.378;13.404;2024-02-21T02:28:05;16.73;;;4.40;;
18879;SDS011;9572;52.378;13.404;2024-02-21T02:30:33;20.50;;;4.10;;
18879;SDS011;9572;52.378;13.404;2024-02-21T02:33:01;22.93;;;4.40;;
18879;SDS011;9572;52.378;13.404;2024-02-21T02:35:28;20.60;;;4.60;;
18879;SDS011;9572;52.378;13.404;2024-02-21T02:37:55;15.63;;;4.27;;
18879;SDS011;9572;52.378;13.404;2024-02-21T02:40:22;18.20;;;4.60;;
18879;SDS011;9572;52.378;13.404;2024-02-21T02:42:50;14.37;;;4.87;;
18879;SDS011;9572;52.378;13.404;2024-02-21T02:45:20;17.67;;;5.10;;
18879;SDS011;9572;52.378;13.404;2024-02-21T02:47:48;20.70;;;4.60;;
18879;SDS011;9572;52.378;13.404;2024-02-21T02:50:15;21.90;;;4.23;;
18879;SDS011;9572;52.378;13.404;2024-02-21T02:52:41;15.67;;;4.63;;
18879;SDS011;9572;52.378;13.404;2024-02-21T02:55:08;10.17;;;3.80;;
18879;SDS011;9572;52.378;13.404;2024-02-21T02:57:35;21.70;;;4.90;;
18879;SDS011;9572;52.378;13.404;2024-02-21T03:00:04;14.53;;;4.43;;
18879;SDS011;9572;52.378;13.404;2024-02-21T03:02:32;13.90;;;4.30;;
18879;SDS011;9572;52.378;13.404;2024-02-21T03:04:59;12.60;;;3.93;;
18879;SDS011;9572;52.378;13.404;2024-02-21T03:07:25;16.50;;;4.13;;
18879;SDS011;9572;52.378;13.404;2024-02-21T03:09:52;17.67;;;4.67;;
18879;SDS011;9572;52.378;13.404;2024-02-21T03:12:19;13.07;;;4.17;;
18879;SDS011;9572;52.378;13.404;2024-02-21T03:14:52;21.20;;;4.80;;
18879;SDS011;9572;52.378;13.404;2024-02-21T03:17:21;22.33;;;4.93;;
18879;SDS011;9572;52.378;13.404;2024-02-21T03:19:48;18.87;;;5.20;;
18879;SDS011;9572;52.378;13.404;2024-02-21T03:22:15;14.07;;;4.33;;
18879;SDS011;9572;52.378;13.404;2024-02-21T03:24:41;20.03;;;5.20;;
18879;SDS011;9572;52.378;13.404;2024-02-21T03:27:09;21.00;;;5.57;;
18879;SDS011;9572;52.378;13.404;2024-02-21T03:29:35;17.50;;;4.70;;
18879;SDS011;9572;52.378;13.404;2024-02-21T03:32:03;16.27;;;4.50;;
18879;SDS011;9572;52.378;13.404;2024-02-21T03:34:31;17.83;;;4.90;;
18879;SDS011;9572;52.378;13.404;2024-02-21T03:36:58;15.63;;;4.80;;
18879;SDS011;9572;52.378;13.404;2024-02-21T03:39:25;11.43;;;4.50;;
18879;SDS011;9572;52.378;13.404;2024-02-21T03:41:52;26.73;;;5.67;;
18879;SDS011;9572;52.378;13.404;2024-02-21T03:44:19;24.93;;;5.43;;
18879;SDS011;9572;52.378;13.404;2024-02-21T03:46:45;20.07;;;4.97;;
18879;SDS011;9572;52.378;13.404;2024-02-21T03:49:12;24.03;;;5.47;;
18879;SDS011;9572;52.378;13.404;2024-02-21T03:51:40;21.93;;;5.50;;
18879;SDS011;9572;52.378;13.404;2024-02-21T03:54:07;24.80;;;5.00;;
18879;SDS011;9572;52.378;13.404;2024-02-21T03:56:36;21.57;;;5.50;;
18879;SDS011;9572;52.378;13.404;2024-02-21T03:59:04;21.20;;;5.80;;
18879;SDS011;9572;52.378;13.404;2024-02-21T04:01:31;16.67;;;6.30;;
18879;SDS011;9572;52.378;13.404;2024-02-21T04:03:58;17.80;;;5.40;;
18879;SDS011;9572;52.378;13.404;2024-02-21T04:06:25;21.90;;;5.67;;
18879;SDS011;9572;52.378;13.404;2024-02-21T04:08:53;18.73;;;5.07;;
18879;SDS011;9572;52.378;13.404;2024-02-21T04:11:20;16.40;;;5.33;;
18879;SDS011;9572;52.378;13.404;2024-02-21T04:13:47;17.93;;;5.00;;
18879;SDS011;9572;52.378;13.404;2024-02-21T04:16:15;18.00;;;5.40;;
18879;SDS011;9572;52.378;13.404;2024-02-21T04:18:42;21.13;;;5.50;;
18879;SDS011;9572;52.378;13.404;2024-02-21T04:21:09;16.77;;;5.93;;
18879;SDS011;9572;52.378;13.404;2024-02-21T04:23:36;24.77;;;5.87;;
18879;SDS011;9572;52.378;13.404;2024-02-21T04:26:05;17.73;;;5.43;;
18879;SDS011;9572;52.378;13.404;2024-02-21T04:28:32;22.37;;;5.10;;
18879;SDS011;9572;52.378;13.404;2024-02-21T04:30:58;20.17;;;5.13;;
18879;SDS011;9572;52.378;13.404;2024-02-21T04:33:26;19.03;;;5.23;;
18879;SDS011;9572;52.378;13.404;2024-02-21T04:35:52;17.63;;;5.43;;
18879;SDS011;9572;52.378;13.404;2024-02-21T04:38:20;26.67;;;5.83;;
18879;SDS011;9572;52.378;13.404;2024-02-21T04:40:47;24.73;;;5.70;;
18879;SDS011;9572;52.378;13.404;2024-02-21T04:43:15;23.97;;;5.57;;
18879;SDS011;9572;52.378;13.404;2024-02-21T04:45:42;17.83;;;5.40;;
18879;SDS011;9572;52.378;13.404;2024-02-21T04:48:09;22.47;;;5.70;;
18879;SDS011;9572;52.378;13.404;2024-02-21T04:50:35;23.97;;;4.93;;
18879;SDS011;9572;52.378;13.404;2024-02-21T04:53:02;18.10;;;4.83;;
18879;SDS011;9572;52.378;13.404;2024-02-21T04:55:29;17.73;;;5.67;;
18879;SDS011;9572;52.378;13.404;2024-02-21T04:57:56;21.33;;;5.63;;
18879;SDS011;9572;52.378;13.404;2024-02-21T05:00:24;24.00;;;5.63;;
18879;SDS011;9572;52.378;13.404;2024-02-21T05:02:51;17.63;;;5.40;;
18879;SDS011;9572;52.378;13.404;2024-02-21T05:05:18;20.70;;;5.83;;
18879;SDS011;9572;52.378;13.404;2024-02-21T05:07:45;14.43;;;5.23;;
18879;SDS011;9572;52.378;13.404;2024-02-21T05:10:12;15.50;;;5.37;;
18879;SDS011;9572;52.378;13.404;2024-02-21T05:12:39;19.37;;;5.30;;
18879;SDS011;9572;52.378;13.404;2024-02-21T05:15:06;14.33;;;4.73;;
18879;SDS011;9572;52.378;13.404;2024-02-21T05:17:34;15.47;;;4.67;;
18879;SDS011;9572;52.378;13.404;2024-02-21T05:20:01;12.73;;;5.03;;
18879;SDS011;9572;52.378;13.404;2024-02-21T05:22:29;21.03;;;4.93;;
18879;SDS011;9572;52.378;13.404;2024-02-21T05:24:55;17.90;;;5.73;;
18879;SDS011;9572;52.378;13.404;2024-02-21T05:27:22;12.37;;;4.97;;
18879;SDS011;9572;52.378;13.404;2024-02-21T05:29:49;20.03;;;6.20;;
18879;SDS011;9572;52.378;13.404;2024-02-21T05:32:16;19.17;;;5.90;;
18879;SDS011;9572;52.378;13.404;2024-02-21T05:34:44;16.90;;;5.37;;
18879;SDS011;9572;52.378;13.404;2024-02-21T05:37:14;17.67;;;5.63;;
18879;SDS011;9572;52.378;13.404;2024-02-21T05:39:41;23.00;;;5.63;;
18879;SDS011;9572;52.378;13.404;2024-02-21T05:42:08;17.93;;;6.07;;
18879;SDS011;9572;52.378;13.404;2024-02-21T05:44:35;19.27;;;5.43;;
18879;SDS011;9572;52.378;13.404;2024-02-21T05:47:02;24.90;;;6.40;;
18879;SDS011;9572;52.378;13.404;2024-02-21T05:49:29;19.33;;;6.23;;
18879;SDS011;9572;52.378;13.404;2024-02-21T05:51:57;23.17;;;6.17;;
18879;SDS011;9572;52.378;13.404;2024-02-21T05:54:24;17.93;;;6.23;;
18879;SDS011;9572;52.378;13.404;2024-02-21T05:56:51;24.80;;;6.57;;
18879;SDS011;9572;52.378;13.404;2024-02-21T05:59:18;24.83;;;6.83;;
18879;SDS011;9572;52.378;13.404;2024-02-21T06:01:45;22.77;;;6.43;;
18879;SDS011;9572;52.378;13.404;2024-02-21T06:04:21;15.10;;;5.60;;
18879;SDS011;9572;52.378;13.404;2024-02-21T06:06:48;18.30;;;6.43;;
18879;SDS011;9572;52.378;13.404;2024-02-21T06:09:16;22.13;;;5.90;;
18879;SDS011;9572;52.378;13.404;2024-02-21T06:11:43;17.13;;;6.40;;
18879;SDS011;9572;52.378;13.404;2024-02-21T06:14:11;17.27;;;6.53;;
18879;SDS011;9572;52.378;13.404;2024-02-21T06:16:38;20.27;;;5.93;;
18879;SDS011;9572;52.378;13.404;2024-02-21T06:19:05;13.77;;;5.93;;
18879;SDS011;9572;52.378;13.404;2024-02-21T06:21:31;21.60;;;6.47;;
18879;SDS011;9572;52.378;13.404;2024-02-21T06:23:58;16.60;;;5.13;;
18879;SDS011;9572;52.378;13.404;2024-02-21T06:26:26;14.70;;;5.67;;
18879;SDS011;9572;52.378;13.404;2024-02-21T06:28:53;18.13;;;6.40;;
18879;SDS011;9572;52.378;13.404;2024-02-21T06:31:20;20.40;;;6.60;;
18879;SDS011;9572;52.378;13.404;2024-02-21T06:33:47;15.93;;;5.50;;
18879;SDS011;9572;52.378;13.404;2024-02-21T06:36:14;23.47;;;6.33;;
18879;SDS011;9572;52.378;13.404;2024-02-21T06:38:41;16.87;;;6.00;;
18879;SDS011;9572;52.378;13.404;2024-02-21T06:41:14;14.30;;;5.63;;
18879;SDS011;9572;52.378;13.404;2024-02-21T06:43:42;16.67;;;6.07;;
18879;SDS011;9572;52.378;13.404;2024-02-21T06:46:09;20.33;;;6.03;;
18879;SDS011;9572;52.378;13.404;2024-02-21T06:48:36;18.87;;;6.60;;
18879;SDS011;9572;52.378;13.404;2024-02-21T06:51:03;18.83;;;6.80;;
18879;SDS011;9572;52.378;13.404;2024-02-21T06:53:30;19.40;;;6.20;;
18879;SDS011;9572;52.378;13.404;2024-02-21T06:55:57;19.83;;;6.47;;
18879;SDS011;9572;52.378;13.404;2024-02-21T06:58:24;18.30;;;6.40;;
18879;SDS011;9572;52.378;13.404;2024-02-21T07:00:52;17.93;;;5.93;;
18879;SDS011;9572;52.378;13.404;2024-02-21T07:03:19;23.93;;;6.30;;
18879;SDS011;9572;52.378;13.404;2024-02-21T07:05:46;17.63;;;6.57;;
18879;SDS011;9572;52.378;13.404;2024-02-21T07:08:13;16.00;;;6.30;;
18879;SDS011;9572;52.378;13.404;2024-02-21T07:10:40;13.87;;;5.60;;
18879;SDS011;9572;52.378;13.404;2024-02-21T07:13:07;19.67;;;6.27;;
18879;SDS011;9572;52.378;13.404;2024-02-21T07:15:34;16.83;;;6.40;;
18879;SDS011;9572;52.378;13.404;2024-02-21T07:18:02;21.30;;;6.43;;
18879;SDS011;9572;52.378;13.404;2024-02-21T07:20:30;14.97;;;5.63;;
18879;SDS011;9572;52.378;13.404;2024-02-21T07:22:58;22.63;;;6.43;;
18879;SDS011;9572;52.378;13.404;2024-02-21T07:25:25;20.60;;;5.93;;
18879;SDS011;9572;52.378;13.404;2024-02-21T07:27:52;15.93;;;6.07;;
18879;SDS011;9572;52.378;13.404;2024-02-21T07:30:19;20.13;;;6.70;;
18879;SDS011;9572;52.378;13.404;2024-02-21T07:32:48;14.40;;;5.80;;
18879;SDS011;9572;52.378;13.404;2024-02-21T07:35:17;17.33;;;6.07;;
18879;SDS011;9572;52.378;13.404;2024-02-21T07:37:44;17.80;;;5.40;;
18879;SDS011;9572;52.378;13.404;2024-02-21T07:40:12;18.07;;;5.60;;
18879;SDS011;9572;52.378;13.404;2024-02-21T07:42:40;19.23;;;6.23;;
18879;SDS011;9572;52.378;13.404;2024-02-21T07:45:07;25.33;;;5.73;;
18879;SDS011;9572;52.378;13.404;2024-02-21T07:47:35;22.33;;;6.50;;
18879;SDS011;9572;52.378;13.404;2024-02-21T07:50:02;13.43;;;5.27;;
18879;SDS011;9572;52.378;13.404;2024-02-21T07:52:31;18.83;;;6.40;;
18879;SDS011;9572;52.378;13.404;2024-02-21T07:54:58;16.63;;;5.67;;
18879;SDS011;9572;52.378;13.404;2024-02-21T07:57:25;19.37;;;5.93;;
18879;SDS011;9572;52.378;13.404;2024-02-21T07:59:52;15.73;;;5.87;;
18879;SDS011;9572;52.378;13.404;2024-02-21T08:02:19;17.77;;;6.97;;
18879;SDS011;9572;52.378;13.404;2024-02-21T08:04:45;19.90;;;5.77;;
18879;SDS011;9572;52.378;13.404;2024-02-21T08:07:12;19.63;;;6.33;;
18879;SDS011;9572;52.378;13.404;2024-02-21T08:09:40;18.83;;;6.30;;
18879;SDS011;9572;52.378;13.404;2024-02-21T08:12:07;15.57;;;5.80;;
18879;SDS011;9572;52.378;13.404;2024-02-21T08:14:34;17.07;;;6.27;;
18879;SDS011;9572;52.378;13.404;2024-02-21T08:17:01;14.30;;;6.40;;
18879;SDS011;9572;52.378;13.404;2024-02-21T08:19:29;17.07;;;6.27;;
18879;SDS011;9572;52.378;13.404;2024-02-21T08:21:56;18.13;;;6.90;;
18879;SDS011;9572;52.378;13.404;2024-02-21T08:24:22;19.20;;;6.73;;
18879;SDS011;9572;52.378;13.404;2024-02-21T08:26:51;17.13;;;6.60;;
18879;SDS011;9572;52.378;13.404;2024-02-21T08:29:18;17.47;;;6.10;;
18879;SDS011;9572;52.378;13.404;2024-02-21T08:31:45;21.23;;;6.60;;
18879;SDS011;9572;52.378;13.404;2024-02-21T08:34:12;19.90;;;6.13;;
18879;SDS011;9572;52.378;13.404;2024-02-21T08:36:39;17.43;;;6.07;;
18879;SDS011;9572;52.378;13.404;2024-02-21T08:39:05;16.47;;;6.33;;
18879;SDS011;9572;52.378;13.404;2024-02-21T08:41:34;17.77;;;6.33;;
18879;SDS011;9572;52.378;13.404;2024-02-21T08:44:02;22.90;;;7.43;;
18879;SDS011;9572;52.378;13.404;2024-02-21T08:46:29;15.77;;;6.03;;
18879;SDS011;9572;52.378;13.404;2024-02-21T08:48:56;19.77;;;6.53;;
18879;SDS011;9572;52.378;13.404;2024-02-21T08:51:23;18.53;;;6.37;;
18879;SDS011;9572;52.378;13.404;2024-02-21T08:53:50;18.30;;;5.60;;
18879;SDS011;9572;52.378;13.404;2024-02-21T08:56:18;17.47;;;6.30;;
18879;SDS011;9572;52.378;13.404;2024-02-21T08:58:45;15.87;;;6.07;;
18879;SDS011;9572;52.378;13.404;2024-02-21T09:01:14;13.23;;;5.87;;
18879;SDS011;9572;52.378;13.404;2024-02-21T09:03:41;19.83;;;5.87;;
18879;SDS011;9572;52.378;13.404;2024-02-21T09:06:10;17.37;;;6.30;;
18879;SDS011;9572;52.378;13.404;2024-02-21T09:08:38;21.93;;;7.13;;
18879;SDS011;9572;52.378;13.404;2024-02-21T09:11:05;24.33;;;6.53;;
18879;SDS011;9572;52.378;13.404;2024-02-21T09:13:32;18.20;;;6.37;;
18879;SDS011;9572;52.378;13.404;2024-02-21T09:15:59;20.63;;;6.67;;
18879;SDS011;9572;52.378;13.404;2024-02-21T09:18:27;17.03;;;6.27;;
18879;SDS011;9572;52.378;13.404;2024-02-21T09:20:54;17.03;;;6.43;;
18879;SDS011;9572;52.378;13.404;2024-02-21T09:23:23;17.97;;;7.07;;
18879;SDS011;9572;52.378;13.404;2024-02-21T09:25:50;18.23;;;6.70;;
18879;SDS011;9572;52.378;13.404;2024-02-21T09:28:17;17.03;;;7.13;;
18879;SDS011;9572;52.378;13.404;2024-02-21T09:30:44;12.80;;;6.17;;
18879;SDS011;9572;52.378;13.404;2024-02-21T09:33:11;15.70;;;6.70;;
18879;SDS011;9572;52.378;13.404;2024-02-21T09:35:40;17.43;;;6.73;;
18879;SDS011;9572;52.378;13.404;2024-02-21T09:38:07;19.67;;;6.57;;
18879;SDS011;9572;52.378;13.404;2024-02-21T09:40:34;16.27;;;6.10;;
18879;SDS011;9572;52.378;13.404;2024-02-21T09:43:04;14.87;;;6.60;;
18879;SDS011;9572;52.378;13.404;2024-02-21T09:45:32;17.37;;;6.77;;
18879;SDS011;9572;52.378;13.404;2024-02-21T09:50:58;14.93;;;6.00;;
18879;SDS011;9572;52.378;13.404;2024-02-21T09:53:26;19.47;;;6.33;;
18879;SDS011;9572;52.378;13.404;2024-02-21T09:55:54;16.37;;;7.37;;
18879;SDS011;9572;52.378;13.404;2024-02-21T09:58:21;18.97;;;6.93;;
18879;SDS011;9572;52.378;13.404;2024-02-21T10:00:51;19.87;;;7.07;;
18879;SDS011;9572;52.378;13.404;2024-02-21T10:03:18;17.57;;;6.87;;
18879;SDS011;9572;52.378;13.404;2024-02-21T10:05:46;16.03;;;6.93;;
18879;SDS011;9572;52.378;13.404;2024-02-21T10:08:16;14.13;;;6.50;;
18879;SDS011;9572;52.378;13.404;2024-02-21T10:10:43;14.63;;;6.83;;
18879;SDS011;9572;52.378;13.404;2024-02-21T10:13:21;16.77;;;7.40;;
18879;SDS011;9572;52.378;13.404;2024-02-21T10:16:00;16.00;;;7.00;;
18879;SDS011;9572;52.378;13.404;2024-02-21T10:18:27;18.33;;;6.80;;
18879;SDS011;9572;52.378;13.404;2024-02-21T10:20:59;14.83;;;6.50;;
18879;SDS011;9572;52.378;13.404;2024-02-21T10:23:28;13.90;;;6.20;;
18879;SDS011;9572;52.378;13.404;2024-02-21T10:26:04;13.73;;;6.53;;
18879;SDS011;9572;52.378;13.404;2024-02-21T10:28:31;15.73;;;6.17;;
18879;SDS011;9572;52.378;13.404;2024-02-21T10:30:58;16.77;;;6.53;;
18879;SDS011;9572;52.378;13.404;2024-02-21T10:33:25;20.20;;;6.20;;
18879;SDS011;9572;52.378;13.404;2024-02-21T10:35:53;15.67;;;6.27;;
18879;SDS011;9572;52.378;13.404;2024-02-21T10:38:20;14.63;;;6.57;;
18879;SDS011;9572;52.378;13.404;2024-02-21T10:40:48;17.30;;;6.20;;
18879;SDS011;9572;52.378;13.404;2024-02-21T10:43:18;13.90;;;5.90;;
18879;SDS011;9572;52.378;13.404;2024-02-21T10:45:46;15.97;;;6.27;;
18879;SDS011;9572;52.378;13.404;2024-02-21T10:48:15;23.40;;;7.22;;
18879;SDS011;9572;52.378;13.404;2024-02-21T10:50:53;17.17;;;6.80;;
18879;SDS011;9572;52.378;13.404;2024-02-21T10:53:26;18.13;;;6.53;;
18879;SDS011;9572;52.378;13.404;2024-02-21T10:56:06;14.47;;;5.73;;
18879;SDS011;9572;52.378;13.404;2024-02-21T10:58:38;13.07;;;5.53;;
18879;SDS011;9572;52.378;13.404;2024-02-21T11:01:05;13.83;;;5.93;;
18879;SDS011;9572;52.378;13.404;2024-02-21T11:03:34;13.98;;;5.90;;
18879;SDS011;9572;52.378;13.404;2024-02-21T11:06:02;15.52;;;6.25;;
18879;SDS011;9572;52.378;13.404;2024-02-21T11:08:30;14.50;;;5.97;;
18879;SDS011;9572;52.378;13.404;2024-02-21T11:10:57;15.15;;;5.78;;
18879;SDS011;9572;52.378;13.404;2024-02-21T11:13:31;12.98;;;6.18;;
18879;SDS011;9572;52.378;13.404;2024-02-21T11:16:08;13.90;;;6.13;;
18879;SDS011;9572;52.378;13.404;2024-02-21T11:18:35;11.77;;;5.65;;
18879;SDS011;9572;52.378;13.404;2024-02-21T11:21:03;16.23;;;6.53;;
18879;SDS011;9572;52.378;13.404;2024-02-21T11:23:30;14.40;;;5.60;;
18879;SDS011;9572;52.378;13.404;2024-02-21T11:26:04;15.07;;;6.18;;
18879;SDS011;9572;52.378;13.404;2024-02-21T11:28:33;14.30;;;6.10;;
18879;SDS011;9572;52.378;13.404;2024-02-21T11:31:06;14.27;;;5.50;;
18879;SDS011;9572;52.378;13.404;2024-02-21T11:33:34;12.57;;;5.57;;
18879;SDS011;9572;52.378;13.404;2024-02-21T11:36:01;13.93;;;6.05;;
18879;SDS011;9572;52.378;13.404;2024-02-21T11:38:29;13.30;;;5.72;;
18879;SDS011;9572;52.378;13.404;2024-02-21T11:40:56;11.48;;;5.32;;
18879;SDS011;9572;52.378;13.404;2024-02-21T11:43:23;11.82;;;4.95;;
18879;SDS011;9572;52.378;13.404;2024-02-21T11:45:52;9.13;;;4.55;;
18879;SDS011;9572;52.378;13.404;2024-02-21T11:48:25;14.45;;;4.93;;
18879;SDS011;9572;52.378;13.404;2024-02-21T11:50:52;10.93;;;4.55;;
18879;SDS011;9572;52.378;13.404;2024-02-21T11:53:21;15.60;;;4.70;;
18879;SDS011;9572;52.378;13.404;2024-02-21T11:55:48;7.88;;;4.30;;
18879;SDS011;9572;52.378;13.404;2024-02-21T11:58:16;15.18;;;4.70;;
18879;SDS011;9572;52.378;13.404;2024-02-21T12:00:43;11.88;;;4.20;;
18879;SDS011;9572;52.378;13.404;2024-02-21T12:03:11;9.02;;;4.45;;
18879;SDS011;9572;52.378;13.404;2024-02-21T12:05:38;7.55;;;4.10;;
18879;SDS011;9572;52.378;13.404;2024-02-21T12:08:05;8.77;;;4.18;;
18879;SDS011;9572;52.378;13.404;2024-02-21T12:10:32;9.35;;;3.97;;
18879;SDS011;9572;52.378;13.404;2024-02-21T12:13:05;10.00;;;4.03;;
18879;SDS011;9572;52.378;13.404;2024-02-21T12:15:33;8.35;;;3.80;;
18879;SDS011;9572;52.378;13.404;2024-02-21T12:18:00;7.25;;;4.13;;
18879;SDS011;9572;52.378;13.404;2024-02-21T12:20:28;11.18;;;4.65;;
18879;SDS011;9572;52.378;13.404;2024-02-21T12:22:57;9.02;;;3.78;;
18879;SDS011;9572;52.378;13.404;2024-02-21T12:25:26;9.57;;;4.00;;
18879;SDS011;9572;52.378;13.404;2024-02-21T12:27:54;9.43;;;3.70;;
18879;SDS011;9572;52.378;13.404;2024-02-21T12:30:21;8.40;;;4.05;;
18879;SDS011;9572;52.378;13.404;2024-02-21T12:32:48;9.70;;;4.20;;
18879;SDS011;9572;52.378;13.404;2024-02-21T12:35:15;12.10;;;4.20;;
18879;SDS011;9572;52.378;13.404;2024-02-21T12:37:43;10.52;;;4.30;;
18879;SDS011;9572;52.378;13.404;2024-02-21T12:40:11;9.65;;;4.10;;
18879;SDS011;9572;52.378;13.404;2024-02-21T12:42:38;11.45;;;3.85;;
18879;SDS011;9572;52.378;13.404;2024-02-21T12:45:05;12.77;;;4.10;;
18879;SDS011;9572;52.378;13.404;2024-02-21T12:47:33;8.10;;;4.10;;
18879;SDS011;9572;52.378;13.404;2024-02-21T12:49:59;9.93;;;4.90;;
18879;SDS011;9572;52.378;13.404;2024-02-21T12:52:28;13.45;;;4.68;;
18879;SDS011;9572;52.378;13.404;2024-02-21T12:54:57;11.57;;;4.43;;
18879;SDS011;9572;52.378;13.404;2024-02-21T12:57:24;12.85;;;4.75;;
18879;SDS011;9572;52.378;13.404;2024-02-21T12:59:51;15.98;;;5.30;;
18879;SDS011;9572;52.378;13.404;2024-02-21T13:02:18;10.13;;;4.40;;
18879;SDS011;9572;52.378;13.404;2024-02-21T13:04:46;12.02;;;4.95;;
18879;SDS011;9572;52.378;13.404;2024-02-21T13:07:13;11.95;;;4.63;;
18879;SDS011;9572;52.378;13.404;2024-02-21T13:09:39;6.85;;;4.00;;
18879;SDS011;9572;52.378;13.404;2024-02-21T13:12:08;17.08;;;4.97;;
18879;SDS011;9572;52.378;13.404;2024-02-21T13:14:35;10.45;;;4.53;;
18879;SDS011;9572;52.378;13.404;2024-02-21T13:17:04;10.68;;;4.25;;
18879;SDS011;9572;52.378;13.404;2024-02-21T13:19:31;9.13;;;4.13;;
18879;SDS011;9572;52.378;13.404;2024-02-21T13:21:58;12.23;;;3.97;;
18879;SDS011;9572;52.378;13.404;2024-02-21T13:24:25;9.80;;;4.55;;
18879;SDS011;9572;52.378;13.404;2024-02-21T13:26:52;9.93;;;4.32;;
18879;SDS011;9572;52.378;13.404;2024-02-21T13:29:20;12.90;;;4.60;;
18879;SDS011;9572;52.378;13.404;2024-02-21T13:31:47;8.63;;;4.20;;
18879;SDS011;9572;52.378;13.404;2024-02-21T13:34:15;9.80;;;3.72;;
18879;SDS011;9572;52.378;13.404;2024-02-21T13:36:42;9.73;;;3.80;;
18879;SDS011;9572;52.378;13.404;2024-02-21T13:39:09;7.57;;;3.80;;
18879;SDS011;9572;52.378;13.404;2024-02-21T13:41:38;9.45;;;4.10;;
18879;SDS011;9572;52.378;13.404;2024-02-21T13:44:05;6.63;;;3.28;;
18879;SDS011;9572;52.378;13.404;2024-02-21T13:46:34;10.10;;;3.50;;
18879;SDS011;9572;52.378;13.404;2024-02-21T13:49:02;11.07;;;3.00;;
18879;SDS011;9572;52.378;13.404;2024-02-21T13:51:31;8.18;;;3.60;;
18879;SDS011;9572;52.378;13.404;2024-02-21T13:53:58;9.32;;;3.05;;
18879;SDS011;9572;52.378;13.404;2024-02-21T13:56:25;5.70;;;3.22;;
18879;SDS011;9572;52.378;13.404;2024-02-21T13:58:52;7.05;;;2.60;;
18879;SDS011;9572;52.378;13.404;2024-02-21T14:01:19;8.38;;;2.92;;
18879;SDS011;9572;52.378;13.404;2024-02-21T14:03:47;10.38;;;2.97;;
18879;SDS011;9572;52.378;13.404;2024-02-21T14:06:14;8.02;;;3.72;;
18879;SDS011;9572;52.378;13.404;2024-02-21T14:08:42;6.82;;;3.05;;
18879;SDS011;9572;52.378;13.404;2024-02-21T14:11:09;12.45;;;3.50;;
18879;SDS011;9572;52.378;13.404;2024-02-21T14:13:36;7.93;;;3.40;;
18879;SDS011;9572;52.378;13.404;2024-02-21T14:16:03;8.52;;;3.30;;
18879;SDS011;9572;52.378;13.404;2024-02-21T14:18:37;7.63;;;3.42;;
18879;SDS011;9572;52.378;13.404;2024-02-21T14:21:07;8.50;;;3.95;;
18879;SDS011;9572;52.378;13.404;2024-02-21T14:23:35;8.82;;;3.20;;
18879;SDS011;9572;52.378;13.404;2024-02-21T14:26:02;7.93;;;3.45;;
18879;SDS011;9572;52.378;13.404;2024-02-21T14:28:29;8.98;;;3.30;;
18879;SDS011;9572;52.378;13.404;2024-02-21T14:30:56;6.95;;;2.85;;
18879;SDS011;9572;52.378;13.404;2024-02-21T14:33:25;9.80;;;3.40;;
18879;SDS011;9572;52.378;13.404;2024-02-21T14:35:52;8.80;;;3.47;;
18879;SDS011;9572;52.378;13.404;2024-02-21T14:38:20;10.20;;;3.65;;
18879;SDS011;9572;52.378;13.404;2024-02-21T14:40:47;6.47;;;2.72;;
18879;SDS011;9572;52.378;13.404;2024-02-21T14:43:14;7.35;;;2.90;;
18879;SDS011;9572;52.378;13.404;2024-02-21T14:45:42;10.80;;;3.30;;
18879;SDS011;9572;52.378;13.404;2024-02-21T14:48:12;8.10;;;3.17;;
18879;SDS011;9572;52.378;13.404;2024-02-21T14:50:39;6.07;;;2.65;;
18879;SDS011;9572;52.378;13.404;2024-02-21T14:53:07;6.57;;;2.80;;
18879;SDS011;9572;52.378;13.404;2024-02-21T14:55:35;9.13;;;3.35;;